sensor_id;sensor_type;location;lat;lon;timestamp;P1;durP1;ratioP1;P2;durP2;ratioP2
62523;SDS011;53689;56.878;60.672;2022-09-12T00:00:35;6.90;;;4.55;;
62523;SDS011;53689;56.878;60.672;2022-09-12T00:03:04;6.65;;;4.30;;
62523;SDS011;53689;56.878;60.672;2022-09-12T00:05:31;5.35;;;4.18;;
62523;SDS011;53689;56.878;60.672;2022-09-12T00:07:59;6.47;;;4.00;;
62523;SDS011;53689;56.878;60.672;2022-09-12T00:10:26;7.53;;;4.55;;
62523;SDS011;53689;56.878;60.672;2022-09-12T00:12:54;7.20;;;4.32;;
62523;SDS011;53689;56.878;60.672;2022-09-12T00:15:21;6.22;;;4.60;;
62523;SDS011;53689;56.878;60.672;2022-09-12T00:17:49;6.18;;;4.20;;
62523;SDS011;53689;56.878;60.672;2022-09-12T00:20:18;6.18;;;4.30;;
62523;SDS011;53689;56.878;60.672;2022-09-12T00:22:45;6.78;;;4.28;;
62523;SDS011;53689;56.878;60.672;2022-09-12T00:25:13;7.32;;;4.28;;
62523;SDS011;53689;56.878;60.672;2022-09-12T00:27:40;6.72;;;4.93;;
62523;SDS011;53689;56.878;60.672;2022-09-12T00:30:08;6.72;;;4.25;;
62523;SDS011;53689;56.878;60.672;2022-09-12T00:32:36;7.20;;;4.10;;
62523;SDS011;53689;56.878;60.672;2022-09-12T00:35:04;6.43;;;4.63;;
62523;SDS011;53689;56.878;60.672;2022-09-12T00:37:34;6.88;;;4.38;;
62523;SDS011;53689;56.878;60.672;2022-09-12T00:40:01;7.50;;;4.70;;
62523;SDS011;53689;56.878;60.672;2022-09-12T00:42:29;6.80;;;4.38;;
62523;SDS011;53689;56.878;60.672;2022-09-12T00:44:57;7.30;;;4.53;;
62523;SDS011;53689;56.878;60.672;2022-09-12T00:47:26;7.82;;;4.72;;
62523;SDS011;53689;56.878;60.672;2022-09-12T00:49:58;6.80;;;4.50;;
62523;SDS011;53689;56.878;60.672;2022-09-12T00:52:32;7.03;;;4.63;;
62523;SDS011;53689;56.878;60.672;2022-09-12T00:55:06;8.07;;;4.93;;
62523;SDS011;53689;56.878;60.672;2022-09-12T00:57:37;7.20;;;5.00;;
62523;SDS011;53689;56.878;60.672;2022-09-12T01:00:10;6.90;;;4.68;;
62523;SDS011;53689;56.878;60.672;2022-09-12T01:02:39;6.72;;;4.38;;
62523;SDS011;53689;56.878;60.672;2022-09-12T01:05:08;8.55;;;5.28;;
62523;SDS011;53689;56.878;60.672;2022-09-12T01:07:38;8.00;;;5.18;;
62523;SDS011;53689;56.878;60.672;2022-09-12T01:10:06;8.32;;;5.43;;
62523;SDS011;53689;56.878;60.672;2022-09-12T01:12:36;7.80;;;5.25;;
62523;SDS011;53689;56.878;60.672;2022-09-12T01:15:06;8.77;;;5.45;;
62523;SDS011;53689;56.878;60.672;2022-09-12T01:17:35;8.93;;;5.10;;
62523;SDS011;53689;56.878;60.672;2022-09-12T01:20:28;7.32;;;5.07;;
62523;SDS011;53689;56.878;60.672;2022-09-12T01:23:16;7.80;;;5.00;;
62523;SDS011;53689;56.878;60.672;2022-09-12T01:26:13;7.53;;;4.93;;
62523;SDS011;53689;56.878;60.672;2022-09-12T01:29:08;7.57;;;4.90;;
62523;SDS011;53689;56.878;60.672;2022-09-12T01:31:50;7.30;;;4.78;;
62523;SDS011;53689;56.878;60.672;2022-09-12T01:34:25;7.85;;;4.88;;
62523;SDS011;53689;56.878;60.672;2022-09-12T01:36:59;8.45;;;5.25;;
62523;SDS011;53689;56.878;60.672;2022-09-12T01:39:38;8.30;;;5.35;;
62523;SDS011;53689;56.878;60.672;2022-09-12T01:42:14;9.05;;;5.15;;
62523;SDS011;53689;56.878;60.672;2022-09-12T01:44:48;8.43;;;5.13;;
62523;SDS011;53689;56.878;60.672;2022-09-12T01:47:25;8.63;;;5.80;;
62523;SDS011;53689;56.878;60.672;2022-09-12T01:49:59;9.00;;;5.15;;
62523;SDS011;53689;56.878;60.672;2022-09-12T01:52:32;8.02;;;5.55;;
62523;SDS011;53689;56.878;60.672;2022-09-12T01:55:05;8.63;;;5.45;;
62523;SDS011;53689;56.878;60.672;2022-09-12T01:57:38;7.53;;;5.20;;
62523;SDS011;53689;56.878;60.672;2022-09-12T02:00:10;8.63;;;5.63;;
62523;SDS011;53689;56.878;60.672;2022-09-12T02:02:40;7.95;;;5.13;;
62523;SDS011;53689;56.878;60.672;2022-09-12T02:05:13;7.13;;;5.10;;
62523;SDS011;53689;56.878;60.672;2022-09-12T02:07:47;8.18;;;5.85;;
62523;SDS011;53689;56.878;60.672;2022-09-12T02:10:19;8.75;;;5.43;;
62523;SDS011;53689;56.878;60.672;2022-09-12T02:12:49;7.50;;;4.93;;
62523;SDS011;53689;56.878;60.672;2022-09-12T02:15:23;8.52;;;5.43;;
62523;SDS011;53689;56.878;60.672;2022-09-12T02:17:56;7.80;;;5.07;;
62523;SDS011;53689;56.878;60.672;2022-09-12T02:20:27;9.60;;;6.03;;
62523;SDS011;53689;56.878;60.672;2022-09-12T02:23:14;8.88;;;5.57;;
62523;SDS011;53689;56.878;60.672;2022-09-12T02:25:47;9.20;;;6.18;;
62523;SDS011;53689;56.878;60.672;2022-09-12T02:28:20;13.52;;;9.50;;
62523;SDS011;53689;56.878;60.672;2022-09-12T02:30:55;8.52;;;6.68;;
62523;SDS011;53689;56.878;60.672;2022-09-12T02:33:31;8.65;;;5.85;;
62523;SDS011;53689;56.878;60.672;2022-09-12T02:36:09;10.57;;;6.03;;
62523;SDS011;53689;56.878;60.672;2022-09-12T02:38:42;10.23;;;5.53;;
62523;SDS011;53689;56.878;60.672;2022-09-12T02:41:13;7.53;;;5.15;;
62523;SDS011;53689;56.878;60.672;2022-09-12T02:43:43;10.10;;;6.07;;
62523;SDS011;53689;56.878;60.672;2022-09-12T02:46:17;9.07;;;5.82;;
62523;SDS011;53689;56.878;60.672;2022-09-12T02:48:49;9.13;;;5.88;;
62523;SDS011;53689;56.878;60.672;2022-09-12T02:51:17;8.70;;;5.40;;
62523;SDS011;53689;56.878;60.672;2022-09-12T02:53:49;10.15;;;5.30;;
62523;SDS011;53689;56.878;60.672;2022-09-12T02:56:17;6.72;;;4.90;;
62523;SDS011;53689;56.878;60.672;2022-09-12T02:58:49;7.78;;;5.05;;
62523;SDS011;53689;56.878;60.672;2022-09-12T03:01:21;7.75;;;5.30;;
62523;SDS011;53689;56.878;60.672;2022-09-12T03:04:09;7.95;;;5.40;;
62523;SDS011;53689;56.878;60.672;2022-09-12T03:06:49;10.43;;;5.55;;
62523;SDS011;53689;56.878;60.672;2022-09-12T03:09:29;13.75;;;6.05;;
62523;SDS011;53689;56.878;60.672;2022-09-12T03:12:07;10.10;;;5.30;;
62523;SDS011;53689;56.878;60.672;2022-09-12T03:14:45;10.10;;;5.15;;
62523;SDS011;53689;56.878;60.672;2022-09-12T03:17:22;8.05;;;4.97;;
62523;SDS011;53689;56.878;60.672;2022-09-12T03:19:57;9.02;;;4.80;;
62523;SDS011;53689;56.878;60.672;2022-09-12T03:22:30;9.32;;;4.80;;
62523;SDS011;53689;56.878;60.672;2022-09-12T03:25:05;10.02;;;5.70;;
62523;SDS011;53689;56.878;60.672;2022-09-12T03:27:43;9.48;;;5.30;;
62523;SDS011;53689;56.878;60.672;2022-09-12T03:30:17;11.25;;;5.50;;
62523;SDS011;53689;56.878;60.672;2022-09-12T03:32:46;12.85;;;5.32;;
62523;SDS011;53689;56.878;60.672;2022-09-12T03:37:49;9.07;;;4.88;;
62523;SDS011;53689;56.878;60.672;2022-09-12T03:40:17;7.57;;;4.88;;
62523;SDS011;53689;56.878;60.672;2022-09-12T03:42:45;11.30;;;5.38;;
62523;SDS011;53689;56.878;60.672;2022-09-12T03:45:13;12.38;;;5.47;;
62523;SDS011;53689;56.878;60.672;2022-09-12T03:47:41;9.75;;;5.28;;
62523;SDS011;53689;56.878;60.672;2022-09-12T03:50:09;12.00;;;5.18;;
62523;SDS011;53689;56.878;60.672;2022-09-12T03:52:38;9.52;;;4.55;;
62523;SDS011;53689;56.878;60.672;2022-09-12T03:55:06;10.53;;;5.40;;
62523;SDS011;53689;56.878;60.672;2022-09-12T03:57:34;10.02;;;5.13;;
62523;SDS011;53689;56.878;60.672;2022-09-12T04:00:02;12.40;;;6.00;;
62523;SDS011;53689;56.878;60.672;2022-09-12T04:02:38;9.95;;;4.95;;
62523;SDS011;53689;56.878;60.672;2022-09-12T04:05:05;10.88;;;5.07;;
62523;SDS011;53689;56.878;60.672;2022-09-12T04:07:33;12.07;;;5.30;;
62523;SDS011;53689;56.878;60.672;2022-09-12T04:10:02;13.93;;;6.20;;
62523;SDS011;53689;56.878;60.672;2022-09-12T04:12:30;10.27;;;5.80;;
62523;SDS011;53689;56.878;60.672;2022-09-12T04:14:58;13.57;;;6.03;;
62523;SDS011;53689;56.878;60.672;2022-09-12T04:17:25;14.27;;;5.85;;
62523;SDS011;53689;56.878;60.672;2022-09-12T04:19:55;19.70;;;6.65;;
62523;SDS011;53689;56.878;60.672;2022-09-12T04:22:22;12.57;;;5.25;;
62523;SDS011;53689;56.878;60.672;2022-09-12T04:24:50;21.05;;;5.50;;
62523;SDS011;53689;56.878;60.672;2022-09-12T04:27:19;25.40;;;5.63;;
62523;SDS011;53689;56.878;60.672;2022-09-12T04:29:47;20.13;;;5.20;;
62523;SDS011;53689;56.878;60.672;2022-09-12T04:32:14;13.40;;;4.45;;
62523;SDS011;53689;56.878;60.672;2022-09-12T04:34:42;13.57;;;4.55;;
62523;SDS011;53689;56.878;60.672;2022-09-12T04:37:09;8.80;;;3.92;;
62523;SDS011;53689;56.878;60.672;2022-09-12T04:39:37;11.43;;;5.03;;
62523;SDS011;53689;56.878;60.672;2022-09-12T04:42:05;11.38;;;4.35;;
62523;SDS011;53689;56.878;60.672;2022-09-12T04:44:34;14.43;;;4.70;;
62523;SDS011;53689;56.878;60.672;2022-09-12T04:47:01;11.40;;;4.90;;
62523;SDS011;53689;56.878;60.672;2022-09-12T04:49:29;11.35;;;4.57;;
62523;SDS011;53689;56.878;60.672;2022-09-12T04:51:57;7.78;;;4.25;;
62523;SDS011;53689;56.878;60.672;2022-09-12T04:54:24;12.10;;;5.25;;
62523;SDS011;53689;56.878;60.672;2022-09-12T04:56:52;11.20;;;5.00;;
62523;SDS011;53689;56.878;60.672;2022-09-12T04:59:20;14.48;;;6.18;;
62523;SDS011;53689;56.878;60.672;2022-09-12T05:01:49;13.02;;;5.40;;
62523;SDS011;53689;56.878;60.672;2022-09-12T05:04:17;14.83;;;5.23;;
62523;SDS011;53689;56.878;60.672;2022-09-12T05:06:44;10.55;;;5.55;;
62523;SDS011;53689;56.878;60.672;2022-09-12T05:09:12;11.48;;;5.13;;
62523;SDS011;53689;56.878;60.672;2022-09-12T05:11:41;12.48;;;5.57;;
62523;SDS011;53689;56.878;60.672;2022-09-12T05:14:29;19.70;;;9.65;;
62523;SDS011;53689;56.878;60.672;2022-09-12T05:16:58;11.82;;;6.55;;
62523;SDS011;53689;56.878;60.672;2022-09-12T05:19:26;11.15;;;6.78;;
62523;SDS011;53689;56.878;60.672;2022-09-12T05:21:53;13.13;;;6.90;;
62523;SDS011;53689;56.878;60.672;2022-09-12T05:24:21;18.63;;;7.57;;
62523;SDS011;53689;56.878;60.672;2022-09-12T05:26:49;15.43;;;7.72;;
62523;SDS011;53689;56.878;60.672;2022-09-12T05:29:16;15.02;;;7.47;;
62523;SDS011;53689;56.878;60.672;2022-09-12T05:31:43;13.13;;;7.70;;
62523;SDS011;53689;56.878;60.672;2022-09-12T05:34:12;13.43;;;7.45;;
62523;SDS011;53689;56.878;60.672;2022-09-12T05:36:40;18.77;;;8.73;;
62523;SDS011;53689;56.878;60.672;2022-09-12T05:39:07;14.20;;;8.82;;
62523;SDS011;53689;56.878;60.672;2022-09-12T05:41:35;15.57;;;7.72;;
62523;SDS011;53689;56.878;60.672;2022-09-12T05:44:03;14.68;;;8.27;;
62523;SDS011;53689;56.878;60.672;2022-09-12T05:46:34;17.00;;;9.02;;
62523;SDS011;53689;56.878;60.672;2022-09-12T05:49:04;18.60;;;10.32;;
62523;SDS011;53689;56.878;60.672;2022-09-12T05:51:35;16.75;;;9.82;;
62523;SDS011;53689;56.878;60.672;2022-09-12T05:54:04;15.98;;;9.93;;
62523;SDS011;53689;56.878;60.672;2022-09-12T05:56:36;18.65;;;10.00;;
62523;SDS011;53689;56.878;60.672;2022-09-12T05:59:06;15.75;;;10.05;;
62523;SDS011;53689;56.878;60.672;2022-09-12T06:01:36;15.40;;;9.68;;
62523;SDS011;53689;56.878;60.672;2022-09-12T06:04:04;20.98;;;10.30;;
62523;SDS011;53689;56.878;60.672;2022-09-12T06:06:36;14.98;;;10.10;;
62523;SDS011;53689;56.878;60.672;2022-09-12T06:09:04;15.20;;;9.73;;
62523;SDS011;53689;56.878;60.672;2022-09-12T06:11:33;18.15;;;9.65;;
62523;SDS011;53689;56.878;60.672;2022-09-12T06:14:01;16.10;;;10.00;;
62523;SDS011;53689;56.878;60.672;2022-09-12T06:16:30;13.23;;;9.27;;
62523;SDS011;53689;56.878;60.672;2022-09-12T06:18:59;14.48;;;9.50;;
62523;SDS011;53689;56.878;60.672;2022-09-12T06:21:28;15.87;;;10.13;;
62523;SDS011;53689;56.878;60.672;2022-09-12T06:23:57;16.55;;;9.57;;
62523;SDS011;53689;56.878;60.672;2022-09-12T06:26:25;15.77;;;9.65;;
62523;SDS011;53689;56.878;60.672;2022-09-12T06:28:54;18.75;;;9.65;;
62523;SDS011;53689;56.878;60.672;2022-09-12T06:31:23;17.00;;;9.68;;
62523;SDS011;53689;56.878;60.672;2022-09-12T06:33:52;21.92;;;10.02;;
62523;SDS011;53689;56.878;60.672;2022-09-12T06:36:21;21.48;;;9.90;;
62523;SDS011;53689;56.878;60.672;2022-09-12T06:41:22;17.35;;;9.02;;
62523;SDS011;53689;56.878;60.672;2022-09-12T06:43:51;16.75;;;9.02;;
62523;SDS011;53689;56.878;60.672;2022-09-12T06:46:19;15.98;;;9.57;;
62523;SDS011;53689;56.878;60.672;2022-09-12T06:48:47;21.27;;;9.88;;
62523;SDS011;53689;56.878;60.672;2022-09-12T06:51:15;16.70;;;9.23;;
62523;SDS011;53689;56.878;60.672;2022-09-12T06:53:45;18.60;;;8.98;;
62523;SDS011;53689;56.878;60.672;2022-09-12T06:56:14;17.98;;;9.15;;
62523;SDS011;53689;56.878;60.672;2022-09-12T06:58:45;15.23;;;9.23;;
62523;SDS011;53689;56.878;60.672;2022-09-12T07:01:15;19.40;;;10.18;;
62523;SDS011;53689;56.878;60.672;2022-09-12T07:03:46;21.70;;;7.82;;
62523;SDS011;53689;56.878;60.672;2022-09-12T07:06:15;18.13;;;8.02;;
62523;SDS011;53689;56.878;60.672;2022-09-12T07:08:44;18.83;;;8.32;;
62523;SDS011;53689;56.878;60.672;2022-09-12T07:11:14;15.80;;;7.57;;
62523;SDS011;53689;56.878;60.672;2022-09-12T07:13:46;12.00;;;7.00;;
62523;SDS011;53689;56.878;60.672;2022-09-12T07:16:14;17.75;;;7.05;;
62523;SDS011;53689;56.878;60.672;2022-09-12T07:18:48;16.55;;;8.30;;
62523;SDS011;53689;56.878;60.672;2022-09-12T07:21:16;40.15;;;10.27;;
62523;SDS011;53689;56.878;60.672;2022-09-12T07:23:44;24.95;;;8.73;;
62523;SDS011;53689;56.878;60.672;2022-09-12T07:26:13;27.33;;;9.43;;
62523;SDS011;53689;56.878;60.672;2022-09-12T07:28:42;26.35;;;8.57;;
62523;SDS011;53689;56.878;60.672;2022-09-12T07:31:12;19.25;;;8.00;;
62523;SDS011;53689;56.878;60.672;2022-09-12T07:33:41;20.63;;;8.52;;
62523;SDS011;53689;56.878;60.672;2022-09-12T07:36:10;18.60;;;7.65;;
62523;SDS011;53689;56.878;60.672;2022-09-12T07:38:38;21.92;;;12.43;;
62523;SDS011;53689;56.878;60.672;2022-09-12T07:41:10;17.08;;;10.07;;
62523;SDS011;53689;56.878;60.672;2022-09-12T07:43:38;13.75;;;7.93;;
62523;SDS011;53689;56.878;60.672;2022-09-12T07:46:05;13.07;;;6.43;;
62523;SDS011;53689;56.878;60.672;2022-09-12T07:48:34;9.73;;;6.22;;
62523;SDS011;53689;56.878;60.672;2022-09-12T07:51:03;9.02;;;5.70;;
62523;SDS011;53689;56.878;60.672;2022-09-12T07:53:32;12.38;;;5.70;;
62523;SDS011;53689;56.878;60.672;2022-09-12T07:56:01;9.52;;;5.47;;
62523;SDS011;53689;56.878;60.672;2022-09-12T07:58:30;10.00;;;5.28;;
62523;SDS011;53689;56.878;60.672;2022-09-12T08:01:03;8.27;;;5.13;;
62523;SDS011;53689;56.878;60.672;2022-09-12T08:03:31;8.68;;;5.10;;
62523;SDS011;53689;56.878;60.672;2022-09-12T08:06:04;11.13;;;5.20;;
62523;SDS011;53689;56.878;60.672;2022-09-12T08:08:32;6.90;;;4.40;;
62523;SDS011;53689;56.878;60.672;2022-09-12T08:11:01;8.45;;;4.28;;
62523;SDS011;53689;56.878;60.672;2022-09-12T08:13:31;6.25;;;3.67;;
62523;SDS011;53689;56.878;60.672;2022-09-12T08:18:29;7.75;;;4.15;;
62523;SDS011;53689;56.878;60.672;2022-09-12T08:20:57;6.63;;;3.58;;
62523;SDS011;53689;56.878;60.672;2022-09-12T08:23:26;7.97;;;3.70;;
62523;SDS011;53689;56.878;60.672;2022-09-12T08:25:54;7.85;;;3.38;;
62523;SDS011;53689;56.878;60.672;2022-09-12T08:28:22;8.05;;;3.22;;
62523;SDS011;53689;56.878;60.672;2022-09-12T08:30:50;6.45;;;3.47;;
62523;SDS011;53689;56.878;60.672;2022-09-12T08:33:18;6.97;;;3.45;;
62523;SDS011;53689;56.878;60.672;2022-09-12T08:35:46;6.57;;;3.30;;
62523;SDS011;53689;56.878;60.672;2022-09-12T08:38:13;5.95;;;3.13;;
62523;SDS011;53689;56.878;60.672;2022-09-12T08:40:45;8.32;;;4.10;;
62523;SDS011;53689;56.878;60.672;2022-09-12T08:43:20;5.18;;;3.45;;
62523;SDS011;53689;56.878;60.672;2022-09-12T08:45:58;5.78;;;3.65;;
62523;SDS011;53689;56.878;60.672;2022-09-12T08:48:34;6.68;;;3.55;;
62523;SDS011;53689;56.878;60.672;2022-09-12T08:51:02;7.22;;;3.78;;
62523;SDS011;53689;56.878;60.672;2022-09-12T08:53:30;7.35;;;4.07;;
62523;SDS011;53689;56.878;60.672;2022-09-12T08:56:02;6.60;;;3.85;;
62523;SDS011;53689;56.878;60.672;2022-09-12T08:58:36;7.65;;;3.83;;
62523;SDS011;53689;56.878;60.672;2022-09-12T09:01:07;11.77;;;4.68;;
62523;SDS011;53689;56.878;60.672;2022-09-12T09:03:44;7.97;;;4.80;;
62523;SDS011;53689;56.878;60.672;2022-09-12T09:06:25;8.80;;;4.57;;
62523;SDS011;53689;56.878;60.672;2022-09-12T09:09:04;7.35;;;4.82;;
62523;SDS011;53689;56.878;60.672;2022-09-12T09:11:47;9.13;;;5.05;;
62523;SDS011;53689;56.878;60.672;2022-09-12T09:14:38;12.70;;;5.32;;
62523;SDS011;53689;56.878;60.672;2022-09-12T09:17:18;11.40;;;5.00;;
62523;SDS011;53689;56.878;60.672;2022-09-12T09:19:50;12.80;;;5.25;;
62523;SDS011;53689;56.878;60.672;2022-09-12T09:22:27;8.35;;;4.85;;
62523;SDS011;53689;56.878;60.672;2022-09-12T09:25:10;12.68;;;5.05;;
62523;SDS011;53689;56.878;60.672;2022-09-12T09:27:51;15.40;;;5.10;;
62523;SDS011;53689;56.878;60.672;2022-09-12T09:30:24;13.80;;;5.38;;
62523;SDS011;53689;56.878;60.672;2022-09-12T09:32:53;13.35;;;5.13;;
62523;SDS011;53689;56.878;60.672;2022-09-12T09:35:27;15.10;;;5.22;;
62523;SDS011;53689;56.878;60.672;2022-09-12T09:38:06;14.80;;;5.63;;
62523;SDS011;53689;56.878;60.672;2022-09-12T09:40:45;15.40;;;6.13;;
62523;SDS011;53689;56.878;60.672;2022-09-12T09:43:23;16.08;;;6.40;;
62523;SDS011;53689;56.878;60.672;2022-09-12T09:45:52;22.13;;;6.93;;
62523;SDS011;53689;56.878;60.672;2022-09-12T09:48:20;20.75;;;6.50;;
62523;SDS011;53689;56.878;60.672;2022-09-12T09:50:51;17.50;;;5.55;;
62523;SDS011;53689;56.878;60.672;2022-09-12T09:53:26;12.57;;;5.20;;
62523;SDS011;53689;56.878;60.672;2022-09-12T09:56:00;9.02;;;4.63;;
62523;SDS011;53689;56.878;60.672;2022-09-12T09:58:34;13.52;;;5.68;;
62523;SDS011;53689;56.878;60.672;2022-09-12T10:01:03;12.10;;;5.47;;
62523;SDS011;53689;56.878;60.672;2022-09-12T10:03:32;16.30;;;5.72;;
62523;SDS011;53689;56.878;60.672;2022-09-12T10:06:05;17.13;;;6.70;;
62523;SDS011;53689;56.878;60.672;2022-09-12T10:08:47;19.63;;;6.72;;
62523;SDS011;53689;56.878;60.672;2022-09-12T10:11:17;17.73;;;6.43;;
62523;SDS011;53689;56.878;60.672;2022-09-12T10:13:52;16.52;;;6.75;;
62523;SDS011;53689;56.878;60.672;2022-09-12T10:16:22;15.88;;;6.43;;
62523;SDS011;53689;56.878;60.672;2022-09-12T10:18:51;16.55;;;6.10;;
62523;SDS011;53689;56.878;60.672;2022-09-12T10:21:21;15.65;;;6.43;;
62523;SDS011;53689;56.878;60.672;2022-09-12T10:23:58;16.52;;;6.68;;
62523;SDS011;53689;56.878;60.672;2022-09-12T10:26:32;18.85;;;7.32;;
62523;SDS011;53689;56.878;60.672;2022-09-12T10:29:06;16.75;;;6.15;;
62523;SDS011;53689;56.878;60.672;2022-09-12T10:31:48;19.17;;;6.63;;
62523;SDS011;53689;56.878;60.672;2022-09-12T10:34:21;15.93;;;6.07;;
62523;SDS011;53689;56.878;60.672;2022-09-12T10:36:53;14.50;;;6.13;;
62523;SDS011;53689;56.878;60.672;2022-09-12T10:39:26;12.77;;;6.63;;
62523;SDS011;53689;56.878;60.672;2022-09-12T10:41:54;14.15;;;6.70;;
62523;SDS011;53689;56.878;60.672;2022-09-12T10:44:25;15.07;;;6.13;;
62523;SDS011;53689;56.878;60.672;2022-09-12T10:46:54;14.98;;;6.10;;
62523;SDS011;53689;56.878;60.672;2022-09-12T10:49:24;14.18;;;5.18;;
62523;SDS011;53689;56.878;60.672;2022-09-12T10:51:54;16.65;;;5.90;;
62523;SDS011;53689;56.878;60.672;2022-09-12T10:54:23;12.20;;;5.15;;
62523;SDS011;53689;56.878;60.672;2022-09-12T11:00:07;10.75;;;5.18;;
62523;SDS011;53689;56.878;60.672;2022-09-12T11:02:42;9.85;;;5.43;;
62523;SDS011;53689;56.878;60.672;2022-09-12T11:05:20;10.02;;;4.60;;
62523;SDS011;53689;56.878;60.672;2022-09-12T11:07:59;10.50;;;5.63;;
62523;SDS011;53689;56.878;60.672;2022-09-12T11:10:39;9.73;;;5.13;;
62523;SDS011;53689;56.878;60.672;2022-09-12T11:13:16;9.40;;;5.78;;
62523;SDS011;53689;56.878;60.672;2022-09-12T11:15:55;13.10;;;7.30;;
62523;SDS011;53689;56.878;60.672;2022-09-12T11:18:35;12.52;;;6.75;;
62523;SDS011;53689;56.878;60.672;2022-09-12T11:21:17;11.95;;;5.78;;
62523;SDS011;53689;56.878;60.672;2022-09-12T11:29:19;9.55;;;5.80;;
62523;SDS011;53689;56.878;60.672;2022-09-12T11:32:02;11.50;;;5.22;;
62523;SDS011;53689;56.878;60.672;2022-09-12T11:34:41;10.07;;;5.70;;
62523;SDS011;53689;56.878;60.672;2022-09-12T11:37:18;9.32;;;5.55;;
62523;SDS011;53689;56.878;60.672;2022-09-12T11:40:02;8.48;;;5.78;;
62523;SDS011;53689;56.878;60.672;2022-09-12T11:42:39;10.85;;;5.65;;
62523;SDS011;53689;56.878;60.672;2022-09-12T11:45:11;8.35;;;5.50;;
62523;SDS011;53689;56.878;60.672;2022-09-12T11:47:45;11.25;;;5.82;;
62523;SDS011;53689;56.878;60.672;2022-09-12T11:50:18;12.18;;;5.80;;
62523;SDS011;53689;56.878;60.672;2022-09-12T11:52:49;11.43;;;6.05;;
62523;SDS011;53689;56.878;60.672;2022-09-12T11:55:20;9.50;;;5.82;;
62523;SDS011;53689;56.878;60.672;2022-09-12T11:57:51;10.52;;;6.20;;
62523;SDS011;53689;56.878;60.672;2022-09-12T12:00:21;11.90;;;6.28;;
62523;SDS011;53689;56.878;60.672;2022-09-12T12:05:25;11.23;;;5.85;;
62523;SDS011;53689;56.878;60.672;2022-09-12T12:07:57;12.38;;;6.47;;
62523;SDS011;53689;56.878;60.672;2022-09-12T12:10:28;11.18;;;6.35;;
62523;SDS011;53689;56.878;60.672;2022-09-12T12:13:01;9.45;;;4.82;;
62523;SDS011;53689;56.878;60.672;2022-09-12T12:15:31;9.65;;;4.68;;
62523;SDS011;53689;56.878;60.672;2022-09-12T12:18:04;11.32;;;5.35;;
62523;SDS011;53689;56.878;60.672;2022-09-12T12:20:33;8.77;;;4.95;;
62523;SDS011;53689;56.878;60.672;2022-09-12T12:23:01;9.20;;;4.88;;
62523;SDS011;53689;56.878;60.672;2022-09-12T12:25:37;13.60;;;7.30;;
62523;SDS011;53689;56.878;60.672;2022-09-12T12:28:07;13.27;;;7.60;;
62523;SDS011;53689;56.878;60.672;2022-09-12T12:36:41;12.95;;;7.60;;
62523;SDS011;53689;56.878;60.672;2022-09-12T12:48:29;15.60;;;7.68;;
62523;SDS011;53689;56.878;60.672;2022-09-12T12:54:25;16.58;;;8.18;;
62523;SDS011;53689;56.878;60.672;2022-09-12T12:57:14;14.93;;;8.55;;
62523;SDS011;53689;56.878;60.672;2022-09-12T12:59:58;13.50;;;8.73;;
62523;SDS011;53689;56.878;60.672;2022-09-12T13:02:28;18.83;;;8.30;;
62523;SDS011;53689;56.878;60.672;2022-09-12T13:04:59;19.08;;;8.63;;
62523;SDS011;53689;56.878;60.672;2022-09-12T13:07:31;14.98;;;8.02;;
62523;SDS011;53689;56.878;60.672;2022-09-12T13:10:03;18.95;;;9.05;;
62523;SDS011;53689;56.878;60.672;2022-09-12T13:12:33;21.38;;;8.75;;
62523;SDS011;53689;56.878;60.672;2022-09-12T13:15:27;15.00;;;8.55;;
62523;SDS011;53689;56.878;60.672;2022-09-12T13:18:11;18.13;;;8.73;;
62523;SDS011;53689;56.878;60.672;2022-09-12T13:20:44;20.98;;;9.20;;
62523;SDS011;53689;56.878;60.672;2022-09-12T13:23:22;16.25;;;8.20;;
62523;SDS011;53689;56.878;60.672;2022-09-12T13:25:52;16.25;;;8.60;;
62523;SDS011;53689;56.878;60.672;2022-09-12T13:28:21;22.88;;;9.27;;
62523;SDS011;53689;56.878;60.672;2022-09-12T13:30:53;16.40;;;8.77;;
62523;SDS011;53689;56.878;60.672;2022-09-12T13:33:28;14.68;;;8.75;;
62523;SDS011;53689;56.878;60.672;2022-09-12T13:36:04;21.88;;;8.90;;
62523;SDS011;53689;56.878;60.672;2022-09-12T13:38:45;16.08;;;8.98;;
62523;SDS011;53689;56.878;60.672;2022-09-12T13:43:59;18.13;;;9.07;;
62523;SDS011;53689;56.878;60.672;2022-09-12T13:46:29;18.08;;;9.27;;
62523;SDS011;53689;56.878;60.672;2022-09-12T13:48:59;18.55;;;10.18;;
62523;SDS011;53689;56.878;60.672;2022-09-12T13:51:32;19.63;;;9.57;;
62523;SDS011;53689;56.878;60.672;2022-09-12T13:54:01;20.33;;;9.80;;
62523;SDS011;53689;56.878;60.672;2022-09-12T13:56:32;17.98;;;10.27;;
62523;SDS011;53689;56.878;60.672;2022-09-12T13:59:00;20.70;;;9.97;;
62523;SDS011;53689;56.878;60.672;2022-09-12T14:01:36;23.50;;;9.82;;
62523;SDS011;53689;56.878;60.672;2022-09-12T14:04:09;21.63;;;10.20;;
62523;SDS011;53689;56.878;60.672;2022-09-12T14:06:42;20.38;;;9.77;;
62523;SDS011;53689;56.878;60.672;2022-09-12T14:09:12;22.55;;;10.15;;
62523;SDS011;53689;56.878;60.672;2022-09-12T14:11:42;17.30;;;9.60;;
62523;SDS011;53689;56.878;60.672;2022-09-12T14:14:16;19.97;;;9.67;;
62523;SDS011;53689;56.878;60.672;2022-09-12T14:16:47;17.38;;;9.15;;
62523;SDS011;53689;56.878;60.672;2022-09-12T14:19:15;19.30;;;9.43;;
62523;SDS011;53689;56.878;60.672;2022-09-12T14:21:43;18.90;;;10.23;;
62523;SDS011;53689;56.878;60.672;2022-09-12T14:24:12;18.27;;;8.93;;
62523;SDS011;53689;56.878;60.672;2022-09-12T14:26:40;21.77;;;8.93;;
62523;SDS011;53689;56.878;60.672;2022-09-12T14:29:11;17.33;;;8.88;;
62523;SDS011;53689;56.878;60.672;2022-09-12T14:31:43;18.45;;;9.15;;
62523;SDS011;53689;56.878;60.672;2022-09-12T14:34:11;19.05;;;9.00;;
62523;SDS011;53689;56.878;60.672;2022-09-12T14:36:41;18.92;;;9.13;;
62523;SDS011;53689;56.878;60.672;2022-09-12T14:39:16;17.25;;;9.15;;
62523;SDS011;53689;56.878;60.672;2022-09-12T14:41:50;17.40;;;8.88;;
62523;SDS011;53689;56.878;60.672;2022-09-12T14:44:26;17.10;;;9.15;;
62523;SDS011;53689;56.878;60.672;2022-09-12T14:49:25;17.30;;;8.20;;
62523;SDS011;53689;56.878;60.672;2022-09-12T14:51:57;17.77;;;8.75;;
62523;SDS011;53689;56.878;60.672;2022-09-12T14:54:38;15.88;;;8.38;;
62523;SDS011;53689;56.878;60.672;2022-09-12T14:57:16;17.08;;;8.30;;
62523;SDS011;53689;56.878;60.672;2022-09-12T15:00:10;16.27;;;8.10;;
62523;SDS011;53689;56.878;60.672;2022-09-12T15:02:43;15.07;;;8.18;;
62523;SDS011;53689;56.878;60.672;2022-09-12T15:05:16;19.60;;;8.27;;
62523;SDS011;53689;56.878;60.672;2022-09-12T15:07:50;14.70;;;8.00;;
62523;SDS011;53689;56.878;60.672;2022-09-12T15:10:24;15.52;;;8.27;;
62523;SDS011;53689;56.878;60.672;2022-09-12T15:15:48;13.63;;;7.68;;
62523;SDS011;53689;56.878;60.672;2022-09-12T15:18:17;16.10;;;8.10;;
62523;SDS011;53689;56.878;60.672;2022-09-12T15:20:46;18.90;;;8.35;;
62523;SDS011;53689;56.878;60.672;2022-09-12T15:23:17;17.13;;;8.07;;
62523;SDS011;53689;56.878;60.672;2022-09-12T15:25:55;21.33;;;8.52;;
62523;SDS011;53689;56.878;60.672;2022-09-12T15:28:24;21.73;;;9.63;;
62523;SDS011;53689;56.878;60.672;2022-09-12T15:30:52;28.85;;;11.38;;
62523;SDS011;53689;56.878;60.672;2022-09-12T15:35:49;38.20;;;13.10;;
62523;SDS011;53689;56.878;60.672;2022-09-12T15:38:18;39.63;;;13.50;;
62523;SDS011;53689;56.878;60.672;2022-09-12T15:40:51;42.10;;;12.95;;